Main page
METAR-TAF:

METAR-TAF

Airports :

Chièvres Air Base

Chièvres, Belgium

latitude: 50-34N, longitude: 003-50E, elevation: 60 m

Current weather observation

The report was made 6 hours and 56 minutes ago, at 14:25 UTC
Wind 14 kt from the South
Temperature 24°C
Humidity 50%
Pressure 1014 hPa
Visibility 10 km or more

METAR: EBCV 201425Z AUTO 19014KT 9999 FEW210/// 24/13 Q1014 BLU

Time: 23:21 (21:21 UTC)

Forecast

The report was made 9 hours and 40 minutes ago, at 11:41 UTC
Forecast valid from 20 at 13 UTC to 20 at 22 UTC
Wind 15 kt from the South/Southwest with gusts up to 25 kt
Visibility 10 km or more
Few clouds at a height of 3000 ft
Broken clouds at a height of 25000 ft

TAF: EBCV 201141Z 2013/2022 21015G25KT 9999 FEW030 BKN250 BY EBWM

Weather observations and forecasts of more than 4000 airports (METAR and TAF reports).

The available stations are represented by yellow and red dots on the map.

Hover mouse over dot to see the name of the station.

Then click to see weather observations and forecasts.

To change the map : click on the green buttons with a black cross to zoom in, on the green button with a dash to zoom out, or on the green arrows for adjacent maps.


METAR-TAF: